sensor_id;sensor_type;location;lat;lon;timestamp;P1;durP1;ratioP1;P2;durP2;ratioP2
10725;SDS011;5414;59.782;16.378;2022-09-24T00:00:31;5.63;;;2.67;;
10725;SDS011;5414;59.782;16.378;2022-09-24T00:02:58;3.20;;;2.90;;
10725;SDS011;5414;59.782;16.378;2022-09-24T00:05:24;3.23;;;2.93;;
10725;SDS011;5414;59.782;16.378;2022-09-24T00:07:50;5.40;;;2.60;;
10725;SDS011;5414;59.782;16.378;2022-09-24T00:10:17;3.47;;;2.80;;
10725;SDS011;5414;59.782;16.378;2022-09-24T00:12:45;3.43;;;2.57;;
10725;SDS011;5414;59.782;16.378;2022-09-24T00:15:15;4.27;;;2.70;;
10725;SDS011;5414;59.782;16.378;2022-09-24T00:17:41;3.80;;;2.50;;
10725;SDS011;5414;59.782;16.378;2022-09-24T00:20:08;3.10;;;2.60;;
10725;SDS011;5414;59.782;16.378;2022-09-24T00:22:35;3.20;;;2.70;;
10725;SDS011;5414;59.782;16.378;2022-09-24T00:25:01;3.27;;;2.90;;
10725;SDS011;5414;59.782;16.378;2022-09-24T00:27:47;3.30;;;2.60;;
10725;SDS011;5414;59.782;16.378;2022-09-24T00:30:16;3.63;;;2.93;;
10725;SDS011;5414;59.782;16.378;2022-09-24T00:32:42;4.00;;;3.10;;
10725;SDS011;5414;59.782;16.378;2022-09-24T00:35:08;2.83;;;2.37;;
10725;SDS011;5414;59.782;16.378;2022-09-24T00:37:35;3.10;;;2.80;;
10725;SDS011;5414;59.782;16.378;2022-09-24T00:40:01;4.30;;;3.10;;
10725;SDS011;5414;59.782;16.378;2022-09-24T00:42:27;4.10;;;3.07;;
10725;SDS011;5414;59.782;16.378;2022-09-24T00:44:56;3.37;;;3.00;;
10725;SDS011;5414;59.782;16.378;2022-09-24T00:47:56;4.43;;;3.07;;
10725;SDS011;5414;59.782;16.378;2022-09-24T00:50:16;3.43;;;3.13;;
10725;SDS011;5414;59.782;16.378;2022-09-24T00:52:45;4.60;;;2.70;;
10725;SDS011;5414;59.782;16.378;2022-09-24T00:55:12;3.60;;;2.77;;
10725;SDS011;5414;59.782;16.378;2022-09-24T00:57:39;3.23;;;2.80;;
10725;SDS011;5414;59.782;16.378;2022-09-24T01:00:07;3.30;;;2.93;;
10725;SDS011;5414;59.782;16.378;2022-09-24T01:02:34;3.10;;;2.90;;
10725;SDS011;5414;59.782;16.378;2022-09-24T01:05:01;3.20;;;2.90;;
10725;SDS011;5414;59.782;16.378;2022-09-24T01:07:27;3.87;;;2.67;;
10725;SDS011;5414;59.782;16.378;2022-09-24T01:09:56;3.20;;;2.87;;
10725;SDS011;5414;59.782;16.378;2022-09-24T01:15:30;2.60;;;2.40;;
10725;SDS011;5414;59.782;16.378;2022-09-24T01:18:12;3.37;;;2.70;;
10725;SDS011;5414;59.782;16.378;2022-09-24T01:23:33;3.80;;;2.80;;
10725;SDS011;5414;59.782;16.378;2022-09-24T01:31:35;2.73;;;2.53;;
10725;SDS011;5414;59.782;16.378;2022-09-24T01:34:02;3.33;;;2.70;;
10725;SDS011;5414;59.782;16.378;2022-09-24T01:36:32;4.70;;;2.90;;
10725;SDS011;5414;59.782;16.378;2022-09-24T01:39:00;3.30;;;3.00;;
10725;SDS011;5414;59.782;16.378;2022-09-24T01:41:31;3.67;;;3.00;;
10725;SDS011;5414;59.782;16.378;2022-09-24T01:43:59;3.17;;;2.83;;
10725;SDS011;5414;59.782;16.378;2022-09-24T01:46:27;3.47;;;3.03;;
10725;SDS011;5414;59.782;16.378;2022-09-24T01:48:54;3.40;;;3.10;;
10725;SDS011;5414;59.782;16.378;2022-09-24T01:51:21;3.30;;;3.00;;
10725;SDS011;5414;59.782;16.378;2022-09-24T01:56:32;3.90;;;3.03;;
10725;SDS011;5414;59.782;16.378;2022-09-24T01:59:03;3.23;;;2.60;;
10725;SDS011;5414;59.782;16.378;2022-09-24T02:01:54;4.00;;;2.83;;
10725;SDS011;5414;59.782;16.378;2022-09-24T02:04:18;4.73;;;2.70;;
10725;SDS011;5414;59.782;16.378;2022-09-24T02:09:31;3.10;;;2.80;;
10725;SDS011;5414;59.782;16.378;2022-09-24T02:11:58;5.80;;;2.93;;
10725;SDS011;5414;59.782;16.378;2022-09-24T02:14:25;6.33;;;2.90;;
10725;SDS011;5414;59.782;16.378;2022-09-24T02:16:54;5.27;;;2.90;;
10725;SDS011;5414;59.782;16.378;2022-09-24T02:19:22;3.20;;;2.83;;
10725;SDS011;5414;59.782;16.378;2022-09-24T02:21:49;4.47;;;2.57;;
10725;SDS011;5414;59.782;16.378;2022-09-24T02:24:17;3.20;;;2.57;;
10725;SDS011;5414;59.782;16.378;2022-09-24T02:26:44;3.40;;;2.70;;
10725;SDS011;5414;59.782;16.378;2022-09-24T02:29:11;3.93;;;2.20;;
10725;SDS011;5414;59.782;16.378;2022-09-24T02:31:42;3.23;;;2.93;;
10725;SDS011;5414;59.782;16.378;2022-09-24T02:34:15;3.77;;;3.33;;
10725;SDS011;5414;59.782;16.378;2022-09-24T02:36:48;3.07;;;2.67;;
10725;SDS011;5414;59.782;16.378;2022-09-24T02:39:18;3.83;;;3.30;;
10725;SDS011;5414;59.782;16.378;2022-09-24T02:41:50;3.30;;;3.00;;
10725;SDS011;5414;59.782;16.378;2022-09-24T02:44:18;3.40;;;3.10;;
10725;SDS011;5414;59.782;16.378;2022-09-24T02:46:46;3.23;;;2.93;;
10725;SDS011;5414;59.782;16.378;2022-09-24T02:49:12;3.70;;;3.00;;
10725;SDS011;5414;59.782;16.378;2022-09-24T02:51:40;3.37;;;3.07;;
10725;SDS011;5414;59.782;16.378;2022-09-24T02:54:08;4.30;;;3.00;;
10725;SDS011;5414;59.782;16.378;2022-09-24T02:56:34;3.47;;;2.90;;
10725;SDS011;5414;59.782;16.378;2022-09-24T02:59:00;3.83;;;3.13;;
10725;SDS011;5414;59.782;16.378;2022-09-24T03:01:27;3.57;;;3.20;;
10725;SDS011;5414;59.782;16.378;2022-09-24T03:03:54;4.03;;;3.10;;
10725;SDS011;5414;59.782;16.378;2022-09-24T03:06:20;3.30;;;3.00;;
10725;SDS011;5414;59.782;16.378;2022-09-24T03:08:47;3.23;;;2.93;;
10725;SDS011;5414;59.782;16.378;2022-09-24T03:11:13;2.83;;;2.50;;
10725;SDS011;5414;59.782;16.378;2022-09-24T03:13:39;2.97;;;2.77;;
10725;SDS011;5414;59.782;16.378;2022-09-24T03:16:05;4.00;;;3.00;;
10725;SDS011;5414;59.782;16.378;2022-09-24T03:18:33;3.43;;;2.83;;
10725;SDS011;5414;59.782;16.378;2022-09-24T03:21:02;3.30;;;3.03;;
10725;SDS011;5414;59.782;16.378;2022-09-24T03:23:29;3.27;;;3.00;;
10725;SDS011;5414;59.782;16.378;2022-09-24T03:25:55;3.07;;;2.87;;
10725;SDS011;5414;59.782;16.378;2022-09-24T03:28:21;3.80;;;3.40;;
10725;SDS011;5414;59.782;16.378;2022-09-24T03:30:47;3.20;;;2.90;;
10725;SDS011;5414;59.782;16.378;2022-09-24T03:33:29;3.13;;;2.83;;
10725;SDS011;5414;59.782;16.378;2022-09-24T03:35:59;3.40;;;2.60;;
10725;SDS011;5414;59.782;16.378;2022-09-24T03:38:26;3.60;;;2.70;;
10725;SDS011;5414;59.782;16.378;2022-09-24T03:40:53;3.00;;;2.80;;
10725;SDS011;5414;59.782;16.378;2022-09-24T03:43:19;2.77;;;2.57;;
10725;SDS011;5414;59.782;16.378;2022-09-24T03:45:45;4.87;;;2.87;;
10725;SDS011;5414;59.782;16.378;2022-09-24T03:48:12;3.80;;;3.10;;
10725;SDS011;5414;59.782;16.378;2022-09-24T03:50:38;4.70;;;3.20;;
10725;SDS011;5414;59.782;16.378;2022-09-24T03:53:04;5.37;;;3.23;;
10725;SDS011;5414;59.782;16.378;2022-09-24T03:55:31;4.10;;;3.00;;
10725;SDS011;5414;59.782;16.378;2022-09-24T03:57:57;3.20;;;2.90;;
10725;SDS011;5414;59.782;16.378;2022-09-24T04:00:26;3.23;;;2.93;;
10725;SDS011;5414;59.782;16.378;2022-09-24T04:02:52;2.90;;;2.70;;
10725;SDS011;5414;59.782;16.378;2022-09-24T04:05:18;3.40;;;2.90;;
10725;SDS011;5414;59.782;16.378;2022-09-24T04:07:46;3.67;;;3.37;;
10725;SDS011;5414;59.782;16.378;2022-09-24T04:10:13;6.37;;;3.57;;
10725;SDS011;5414;59.782;16.378;2022-09-24T04:12:39;3.60;;;3.30;;
10725;SDS011;5414;59.782;16.378;2022-09-24T04:15:07;3.03;;;2.83;;
10725;SDS011;5414;59.782;16.378;2022-09-24T04:17:33;3.87;;;3.20;;
10725;SDS011;5414;59.782;16.378;2022-09-24T04:19:59;3.87;;;3.20;;
10725;SDS011;5414;59.782;16.378;2022-09-24T04:22:26;3.30;;;3.00;;
10725;SDS011;5414;59.782;16.378;2022-09-24T04:24:53;3.23;;;3.03;;
10725;SDS011;5414;59.782;16.378;2022-09-24T04:27:19;4.33;;;3.10;;
10725;SDS011;5414;59.782;16.378;2022-09-24T04:29:45;3.50;;;3.20;;
10725;SDS011;5414;59.782;16.378;2022-09-24T04:32:11;3.00;;;2.70;;
10725;SDS011;5414;59.782;16.378;2022-09-24T04:34:37;4.60;;;3.20;;
10725;SDS011;5414;59.782;16.378;2022-09-24T04:37:03;3.30;;;2.90;;
10725;SDS011;5414;59.782;16.378;2022-09-24T04:39:30;3.63;;;2.90;;
10725;SDS011;5414;59.782;16.378;2022-09-24T04:41:56;3.43;;;3.10;;
10725;SDS011;5414;59.782;16.378;2022-09-24T04:44:23;3.90;;;3.00;;
10725;SDS011;5414;59.782;16.378;2022-09-24T04:46:49;3.30;;;3.00;;
10725;SDS011;5414;59.782;16.378;2022-09-24T04:49:15;3.73;;;3.43;;
10725;SDS011;5414;59.782;16.378;2022-09-24T04:51:41;4.00;;;3.10;;
10725;SDS011;5414;59.782;16.378;2022-09-24T04:54:09;3.20;;;2.90;;
10725;SDS011;5414;59.782;16.378;2022-09-24T04:56:35;4.17;;;3.10;;
10725;SDS011;5414;59.782;16.378;2022-09-24T04:59:01;3.87;;;3.20;;
10725;SDS011;5414;59.782;16.378;2022-09-24T05:01:27;3.57;;;3.20;;
10725;SDS011;5414;59.782;16.378;2022-09-24T05:03:53;3.50;;;3.10;;
10725;SDS011;5414;59.782;16.378;2022-09-24T05:06:20;3.50;;;2.97;;
10725;SDS011;5414;59.782;16.378;2022-09-24T05:08:46;3.90;;;3.10;;
10725;SDS011;5414;59.782;16.378;2022-09-24T05:11:12;3.50;;;3.20;;
10725;SDS011;5414;59.782;16.378;2022-09-24T05:13:38;3.90;;;3.40;;
10725;SDS011;5414;59.782;16.378;2022-09-24T05:16:04;3.70;;;3.30;;
10725;SDS011;5414;59.782;16.378;2022-09-24T05:18:30;3.80;;;3.50;;
10725;SDS011;5414;59.782;16.378;2022-09-24T05:20:56;3.20;;;2.90;;
10725;SDS011;5414;59.782;16.378;2022-09-24T05:23:22;3.57;;;3.10;;
10725;SDS011;5414;59.782;16.378;2022-09-24T05:25:48;6.17;;;3.33;;
10725;SDS011;5414;59.782;16.378;2022-09-24T05:28:33;3.63;;;3.07;;
10725;SDS011;5414;59.782;16.378;2022-09-24T05:30:59;3.67;;;3.37;;
10725;SDS011;5414;59.782;16.378;2022-09-24T05:33:26;4.03;;;3.63;;
10725;SDS011;5414;59.782;16.378;2022-09-24T05:35:55;5.40;;;3.83;;
10725;SDS011;5414;59.782;16.378;2022-09-24T05:38:21;4.40;;;4.00;;
10725;SDS011;5414;59.782;16.378;2022-09-24T05:40:48;4.80;;;4.40;;
10725;SDS011;5414;59.782;16.378;2022-09-24T05:43:14;6.77;;;4.23;;
10725;SDS011;5414;59.782;16.378;2022-09-24T05:45:40;4.67;;;4.27;;
10725;SDS011;5414;59.782;16.378;2022-09-24T05:48:06;5.63;;;5.13;;
10725;SDS011;5414;59.782;16.378;2022-09-24T05:50:32;5.97;;;5.00;;
10725;SDS011;5414;59.782;16.378;2022-09-24T05:52:59;5.43;;;4.97;;
10725;SDS011;5414;59.782;16.378;2022-09-24T05:55:25;5.87;;;5.27;;
10725;SDS011;5414;59.782;16.378;2022-09-24T05:57:54;5.40;;;4.90;;
10725;SDS011;5414;59.782;16.378;2022-09-24T06:00:20;5.73;;;5.23;;
10725;SDS011;5414;59.782;16.378;2022-09-24T06:02:46;5.10;;;4.60;;
10725;SDS011;5414;59.782;16.378;2022-09-24T06:05:15;7.03;;;4.80;;
10725;SDS011;5414;59.782;16.378;2022-09-24T06:07:41;4.73;;;4.40;;
10725;SDS011;5414;59.782;16.378;2022-09-24T06:10:07;5.47;;;5.07;;
10725;SDS011;5414;59.782;16.378;2022-09-24T06:12:34;6.90;;;4.87;;
10725;SDS011;5414;59.782;16.378;2022-09-24T06:15:01;5.67;;;5.17;;
10725;SDS011;5414;59.782;16.378;2022-09-24T06:17:27;5.60;;;5.00;;
10725;SDS011;5414;59.782;16.378;2022-09-24T06:19:53;5.07;;;4.13;;
10725;SDS011;5414;59.782;16.378;2022-09-24T06:22:20;5.13;;;4.17;;
10725;SDS011;5414;59.782;16.378;2022-09-24T06:24:46;4.80;;;4.40;;
10725;SDS011;5414;59.782;16.378;2022-09-24T06:27:12;6.90;;;5.57;;
10725;SDS011;5414;59.782;16.378;2022-09-24T06:29:40;6.43;;;5.20;;
10725;SDS011;5414;59.782;16.378;2022-09-24T06:32:06;6.20;;;5.60;;
10725;SDS011;5414;59.782;16.378;2022-09-24T06:34:33;6.67;;;5.70;;
10725;SDS011;5414;59.782;16.378;2022-09-24T06:36:59;6.37;;;5.77;;
10725;SDS011;5414;59.782;16.378;2022-09-24T06:39:25;6.77;;;5.57;;
10725;SDS011;5414;59.782;16.378;2022-09-24T06:41:52;5.80;;;5.30;;
10725;SDS011;5414;59.782;16.378;2022-09-24T06:44:18;6.00;;;5.40;;
10725;SDS011;5414;59.782;16.378;2022-09-24T06:46:45;7.97;;;5.40;;
10725;SDS011;5414;59.782;16.378;2022-09-24T06:49:11;7.60;;;5.40;;
10725;SDS011;5414;59.782;16.378;2022-09-24T06:51:37;5.60;;;5.07;;
10725;SDS011;5414;59.782;16.378;2022-09-24T06:54:03;6.17;;;5.67;;
10725;SDS011;5414;59.782;16.378;2022-09-24T06:56:30;7.13;;;5.60;;
10725;SDS011;5414;59.782;16.378;2022-09-24T06:58:56;5.67;;;5.27;;
10725;SDS011;5414;59.782;16.378;2022-09-24T07:01:22;7.37;;;5.90;;
10725;SDS011;5414;59.782;16.378;2022-09-24T07:03:48;6.27;;;5.67;;
10725;SDS011;5414;59.782;16.378;2022-09-24T07:06:14;6.33;;;5.80;;
10725;SDS011;5414;59.782;16.378;2022-09-24T07:08:40;5.97;;;5.37;;
10725;SDS011;5414;59.782;16.378;2022-09-24T07:11:06;6.47;;;5.87;;
10725;SDS011;5414;59.782;16.378;2022-09-24T07:13:32;7.43;;;5.90;;
10725;SDS011;5414;59.782;16.378;2022-09-24T07:15:58;6.33;;;5.83;;
10725;SDS011;5414;59.782;16.378;2022-09-24T07:18:25;8.97;;;6.03;;
10725;SDS011;5414;59.782;16.378;2022-09-24T07:20:55;5.60;;;5.10;;
10725;SDS011;5414;59.782;16.378;2022-09-24T07:23:21;6.07;;;5.30;;
10725;SDS011;5414;59.782;16.378;2022-09-24T07:25:48;5.77;;;5.27;;
10725;SDS011;5414;59.782;16.378;2022-09-24T07:28:17;6.50;;;5.90;;
10725;SDS011;5414;59.782;16.378;2022-09-24T07:30:44;6.30;;;5.80;;
10725;SDS011;5414;59.782;16.378;2022-09-24T07:33:10;5.50;;;5.10;;
10725;SDS011;5414;59.782;16.378;2022-09-24T07:35:36;5.80;;;5.33;;
10725;SDS011;5414;59.782;16.378;2022-09-24T07:38:04;6.17;;;5.57;;
10725;SDS011;5414;59.782;16.378;2022-09-24T07:40:30;5.70;;;5.20;;
10725;SDS011;5414;59.782;16.378;2022-09-24T07:42:57;5.80;;;5.20;;
10725;SDS011;5414;59.782;16.378;2022-09-24T07:45:24;6.23;;;5.67;;
10725;SDS011;5414;59.782;16.378;2022-09-24T07:47:57;5.47;;;4.97;;
10725;SDS011;5414;59.782;16.378;2022-09-24T07:50:25;5.50;;;5.00;;
10725;SDS011;5414;59.782;16.378;2022-09-24T07:52:52;5.10;;;4.63;;
10725;SDS011;5414;59.782;16.378;2022-09-24T07:55:18;4.43;;;4.13;;
10725;SDS011;5414;59.782;16.378;2022-09-24T07:57:47;5.07;;;4.60;;
10725;SDS011;5414;59.782;16.378;2022-09-24T08:00:13;4.63;;;4.23;;
10725;SDS011;5414;59.782;16.378;2022-09-24T08:02:41;4.83;;;4.37;;
10725;SDS011;5414;59.782;16.378;2022-09-24T08:05:08;4.70;;;4.30;;
10725;SDS011;5414;59.782;16.378;2022-09-24T08:07:35;4.30;;;3.90;;
10725;SDS011;5414;59.782;16.378;2022-09-24T08:10:01;4.23;;;3.93;;
10725;SDS011;5414;59.782;16.378;2022-09-24T08:12:27;4.03;;;3.63;;
10725;SDS011;5414;59.782;16.378;2022-09-24T08:14:56;4.10;;;3.70;;
10725;SDS011;5414;59.782;16.378;2022-09-24T08:17:22;3.60;;;3.30;;
10725;SDS011;5414;59.782;16.378;2022-09-24T08:19:49;3.50;;;3.13;;
10725;SDS011;5414;59.782;16.378;2022-09-24T08:22:17;3.97;;;3.63;;
10725;SDS011;5414;59.782;16.378;2022-09-24T08:24:43;4.63;;;3.97;;
10725;SDS011;5414;59.782;16.378;2022-09-24T08:27:09;4.63;;;3.63;;
10725;SDS011;5414;59.782;16.378;2022-09-24T08:29:35;3.80;;;3.43;;
10725;SDS011;5414;59.782;16.378;2022-09-24T08:32:01;4.10;;;3.70;;
10725;SDS011;5414;59.782;16.378;2022-09-24T08:34:28;3.87;;;3.50;;
10725;SDS011;5414;59.782;16.378;2022-09-24T08:36:55;3.50;;;3.20;;
10725;SDS011;5414;59.782;16.378;2022-09-24T08:39:21;3.47;;;3.27;;
10725;SDS011;5414;59.782;16.378;2022-09-24T08:41:52;3.57;;;3.03;;
10725;SDS011;5414;59.782;16.378;2022-09-24T08:47:10;3.33;;;3.10;;
10725;SDS011;5414;59.782;16.378;2022-09-24T08:52:56;3.70;;;3.40;;
10725;SDS011;5414;59.782;16.378;2022-09-24T08:55:29;3.80;;;3.47;;
10725;SDS011;5414;59.782;16.378;2022-09-24T08:57:59;3.40;;;3.10;;
10725;SDS011;5414;59.782;16.378;2022-09-24T09:00:28;4.33;;;3.40;;
10725;SDS011;5414;59.782;16.378;2022-09-24T09:02:58;3.37;;;3.03;;
10725;SDS011;5414;59.782;16.378;2022-09-24T09:10:22;3.43;;;3.10;;
10725;SDS011;5414;59.782;16.378;2022-09-24T09:12:55;3.67;;;3.03;;
10725;SDS011;5414;59.782;16.378;2022-09-24T09:15:24;3.03;;;2.83;;
10725;SDS011;5414;59.782;16.378;2022-09-24T09:20:48;3.50;;;3.20;;
10725;SDS011;5414;59.782;16.378;2022-09-24T09:23:15;3.87;;;3.23;;
10725;SDS011;5414;59.782;16.378;2022-09-24T09:25:48;4.40;;;3.13;;
10725;SDS011;5414;59.782;16.378;2022-09-24T09:28:17;4.43;;;3.20;;
10725;SDS011;5414;59.782;16.378;2022-09-24T09:36:09;5.67;;;3.53;;
10725;SDS011;5414;59.782;16.378;2022-09-24T09:43:53;3.60;;;3.30;;
10725;SDS011;5414;59.782;16.378;2022-09-24T09:46:25;5.30;;;3.87;;
10725;SDS011;5414;59.782;16.378;2022-09-24T09:48:54;4.43;;;3.20;;
10725;SDS011;5414;59.782;16.378;2022-09-24T09:51:23;5.20;;;3.17;;
10725;SDS011;5414;59.782;16.378;2022-09-24T09:53:59;4.03;;;3.63;;
10725;SDS011;5414;59.782;16.378;2022-09-24T09:56:29;3.63;;;3.37;;
10725;SDS011;5414;59.782;16.378;2022-09-24T10:01:41;3.70;;;3.30;;
10725;SDS011;5414;59.782;16.378;2022-09-24T10:04:50;5.17;;;3.37;;
10725;SDS011;5414;59.782;16.378;2022-09-24T10:09:43;3.20;;;2.90;;
10725;SDS011;5414;59.782;16.378;2022-09-24T10:12:17;3.50;;;3.20;;
10725;SDS011;5414;59.782;16.378;2022-09-24T10:14:55;2.83;;;2.60;;
10725;SDS011;5414;59.782;16.378;2022-09-24T10:17:21;2.70;;;2.40;;
10725;SDS011;5414;59.782;16.378;2022-09-24T10:19:49;3.73;;;3.20;;
10725;SDS011;5414;59.782;16.378;2022-09-24T10:22:19;4.43;;;3.40;;
10725;SDS011;5414;59.782;16.378;2022-09-24T10:24:46;4.07;;;3.10;;
10725;SDS011;5414;59.782;16.378;2022-09-24T10:27:13;5.00;;;3.03;;
10725;SDS011;5414;59.782;16.378;2022-09-24T10:29:47;4.23;;;2.90;;
10725;SDS011;5414;59.782;16.378;2022-09-24T10:32:37;3.40;;;3.10;;
10725;SDS011;5414;59.782;16.378;2022-09-24T10:35:18;3.17;;;2.87;;
10725;SDS011;5414;59.782;16.378;2022-09-24T10:37:51;3.00;;;2.63;;
10725;SDS011;5414;59.782;16.378;2022-09-24T10:40:21;3.60;;;2.90;;
10725;SDS011;5414;59.782;16.378;2022-09-24T10:42:59;4.73;;;3.10;;
10725;SDS011;5414;59.782;16.378;2022-09-24T10:45:28;4.07;;;3.17;;
10725;SDS011;5414;59.782;16.378;2022-09-24T10:48:31;3.57;;;3.27;;
10725;SDS011;5414;59.782;16.378;2022-09-24T10:50:53;3.50;;;2.50;;
10725;SDS011;5414;59.782;16.378;2022-09-24T10:56:01;3.17;;;2.87;;
10725;SDS011;5414;59.782;16.378;2022-09-24T11:01:16;3.67;;;2.90;;
10725;SDS011;5414;59.782;16.378;2022-09-24T11:11:33;3.37;;;2.80;;
10725;SDS011;5414;59.782;16.378;2022-09-24T11:32:33;5.37;;;2.70;;
10725;SDS011;5414;59.782;16.378;2022-09-24T11:35:23;3.60;;;2.70;;
10725;SDS011;5414;59.782;16.378;2022-09-24T11:40:50;2.87;;;2.67;;
10725;SDS011;5414;59.782;16.378;2022-09-24T11:53:46;3.17;;;2.70;;
10725;SDS011;5414;59.782;16.378;2022-09-24T11:56:16;2.83;;;2.63;;
10725;SDS011;5414;59.782;16.378;2022-09-24T11:58:55;2.63;;;2.43;;
10725;SDS011;5414;59.782;16.378;2022-09-24T12:01:24;3.07;;;2.50;;
10725;SDS011;5414;59.782;16.378;2022-09-24T12:06:29;3.00;;;2.40;;
10725;SDS011;5414;59.782;16.378;2022-09-24T12:09:16;3.00;;;2.60;;
10725;SDS011;5414;59.782;16.378;2022-09-24T12:12:08;3.73;;;2.70;;
10725;SDS011;5414;59.782;16.378;2022-09-24T12:17:04;3.97;;;2.50;;
10725;SDS011;5414;59.782;16.378;2022-09-24T12:22:17;2.60;;;2.40;;
10725;SDS011;5414;59.782;16.378;2022-09-24T12:24:48;3.23;;;2.43;;
10725;SDS011;5414;59.782;16.378;2022-09-24T12:27:18;3.70;;;2.50;;
10725;SDS011;5414;59.782;16.378;2022-09-24T12:33:11;2.30;;;2.10;;
10725;SDS011;5414;59.782;16.378;2022-09-24T12:38:16;3.13;;;2.20;;
10725;SDS011;5414;59.782;16.378;2022-09-24T12:44:27;2.63;;;2.43;;
10725;SDS011;5414;59.782;16.378;2022-09-24T12:46:21;2.60;;;2.40;;
10725;SDS011;5414;59.782;16.378;2022-09-24T12:48:49;3.07;;;2.40;;
10725;SDS011;5414;59.782;16.378;2022-09-24T12:51:17;2.87;;;2.50;;
10725;SDS011;5414;59.782;16.378;2022-09-24T12:53:55;2.67;;;2.20;;
10725;SDS011;5414;59.782;16.378;2022-09-24T12:56:24;2.70;;;2.50;;
10725;SDS011;5414;59.782;16.378;2022-09-24T12:58:52;2.70;;;2.40;;
10725;SDS011;5414;59.782;16.378;2022-09-24T13:01:26;2.53;;;2.33;;
10725;SDS011;5414;59.782;16.378;2022-09-24T13:06:37;3.73;;;2.60;;
10725;SDS011;5414;59.782;16.378;2022-09-24T13:09:50;2.50;;;2.30;;
10725;SDS011;5414;59.782;16.378;2022-09-24T13:12:02;2.60;;;2.37;;
10725;SDS011;5414;59.782;16.378;2022-09-24T13:14:29;3.20;;;2.90;;
10725;SDS011;5414;59.782;16.378;2022-09-24T13:16:55;3.77;;;2.60;;
10725;SDS011;5414;59.782;16.378;2022-09-24T13:21:55;3.23;;;2.27;;
10725;SDS011;5414;59.782;16.378;2022-09-24T13:24:25;5.63;;;2.20;;
10725;SDS011;5414;59.782;16.378;2022-09-24T13:26:52;2.40;;;2.20;;
10725;SDS011;5414;59.782;16.378;2022-09-24T13:29:28;3.30;;;2.20;;
10725;SDS011;5414;59.782;16.378;2022-09-24T13:32:01;2.27;;;2.07;;
10725;SDS011;5414;59.782;16.378;2022-09-24T13:34:28;3.30;;;2.37;;
10725;SDS011;5414;59.782;16.378;2022-09-24T13:36:56;3.27;;;2.00;;
10725;SDS011;5414;59.782;16.378;2022-09-24T13:42:01;2.23;;;1.90;;
10725;SDS011;5414;59.782;16.378;2022-09-24T13:44:29;2.90;;;2.13;;
10725;SDS011;5414;59.782;16.378;2022-09-24T13:47:01;2.30;;;2.10;;
10725;SDS011;5414;59.782;16.378;2022-09-24T13:49:28;2.53;;;1.80;;
10725;SDS011;5414;59.782;16.378;2022-09-24T13:51:58;3.43;;;1.90;;
10725;SDS011;5414;59.782;16.378;2022-09-24T13:54:32;2.20;;;1.90;;
10725;SDS011;5414;59.782;16.378;2022-09-24T13:57:11;2.67;;;1.80;;
10725;SDS011;5414;59.782;16.378;2022-09-24T13:59:37;2.57;;;1.87;;
10725;SDS011;5414;59.782;16.378;2022-09-24T14:02:16;2.00;;;1.73;;
10725;SDS011;5414;59.782;16.378;2022-09-24T14:04:47;3.00;;;1.70;;
10725;SDS011;5414;59.782;16.378;2022-09-24T14:07:14;2.00;;;1.80;;
10725;SDS011;5414;59.782;16.378;2022-09-24T14:09:42;2.03;;;1.63;;
10725;SDS011;5414;59.782;16.378;2022-09-24T14:12:16;2.80;;;1.90;;
10725;SDS011;5414;59.782;16.378;2022-09-24T14:14:51;1.73;;;1.60;;
10725;SDS011;5414;59.782;16.378;2022-09-24T14:17:18;3.27;;;1.87;;
10725;SDS011;5414;59.782;16.378;2022-09-24T14:19:44;2.50;;;1.50;;
10725;SDS011;5414;59.782;16.378;2022-09-24T14:22:20;2.47;;;1.67;;
10725;SDS011;5414;59.782;16.378;2022-09-24T14:27:44;2.07;;;1.63;;
10725;SDS011;5414;59.782;16.378;2022-09-24T14:30:23;3.53;;;1.80;;
10725;SDS011;5414;59.782;16.378;2022-09-24T14:32:53;2.80;;;1.50;;
10725;SDS011;5414;59.782;16.378;2022-09-24T14:35:32;1.80;;;1.60;;
10725;SDS011;5414;59.782;16.378;2022-09-24T14:38:06;1.80;;;1.70;;
10725;SDS011;5414;59.782;16.378;2022-09-24T14:40:38;1.70;;;1.50;;
10725;SDS011;5414;59.782;16.378;2022-09-24T14:43:10;1.70;;;1.60;;
10725;SDS011;5414;59.782;16.378;2022-09-24T14:45:39;1.90;;;1.67;;
10725;SDS011;5414;59.782;16.378;2022-09-24T14:48:28;3.27;;;1.93;;
10725;SDS011;5414;59.782;16.378;2022-09-24T14:50:52;4.03;;;2.80;;
10725;SDS011;5414;59.782;16.378;2022-09-24T14:55:45;2.10;;;1.73;;
10725;SDS011;5414;59.782;16.378;2022-09-24T15:00:49;2.33;;;1.50;;
10725;SDS011;5414;59.782;16.378;2022-09-24T15:03:16;2.10;;;1.80;;
10725;SDS011;5414;59.782;16.378;2022-09-24T15:05:44;2.17;;;1.93;;
10725;SDS011;5414;59.782;16.378;2022-09-24T15:10:38;2.00;;;1.73;;
10725;SDS011;5414;59.782;16.378;2022-09-24T15:13:11;1.97;;;1.80;;
10725;SDS011;5414;59.782;16.378;2022-09-24T15:15:38;1.87;;;1.53;;
10725;SDS011;5414;59.782;16.378;2022-09-24T15:18:08;1.70;;;1.60;;
10725;SDS011;5414;59.782;16.378;2022-09-24T15:20:34;2.00;;;1.80;;
10725;SDS011;5414;59.782;16.378;2022-09-24T15:23:01;1.77;;;1.67;;
10725;SDS011;5414;59.782;16.378;2022-09-24T15:25:27;2.93;;;2.00;;
10725;SDS011;5414;59.782;16.378;2022-09-24T15:27:53;1.70;;;1.60;;
10725;SDS011;5414;59.782;16.378;2022-09-24T15:30:20;1.70;;;1.60;;
10725;SDS011;5414;59.782;16.378;2022-09-24T15:32:46;2.97;;;1.80;;
10725;SDS011;5414;59.782;16.378;2022-09-24T15:35:16;1.90;;;1.70;;
10725;SDS011;5414;59.782;16.378;2022-09-24T15:37:42;1.83;;;1.60;;
10725;SDS011;5414;59.782;16.378;2022-09-24T15:42:41;3.03;;;1.97;;
10725;SDS011;5414;59.782;16.378;2022-09-24T15:45:17;1.90;;;1.80;;
10725;SDS011;5414;59.782;16.378;2022-09-24T15:47:43;2.33;;;2.07;;
10725;SDS011;5414;59.782;16.378;2022-09-24T15:50:09;3.63;;;1.83;;
10725;SDS011;5414;59.782;16.378;2022-09-24T15:52:39;2.10;;;2.00;;
10725;SDS011;5414;59.782;16.378;2022-09-24T15:55:11;3.33;;;2.10;;
10725;SDS011;5414;59.782;16.378;2022-09-24T15:57:38;3.30;;;2.77;;
10725;SDS011;5414;59.782;16.378;2022-09-24T16:00:04;3.37;;;2.40;;
10725;SDS011;5414;59.782;16.378;2022-09-24T16:02:31;3.63;;;2.53;;
10725;SDS011;5414;59.782;16.378;2022-09-24T16:04:58;3.13;;;2.87;;
10725;SDS011;5414;59.782;16.378;2022-09-24T16:07:25;5.90;;;3.37;;
10725;SDS011;5414;59.782;16.378;2022-09-24T16:09:51;5.47;;;3.47;;
10725;SDS011;5414;59.782;16.378;2022-09-24T16:12:18;5.57;;;4.20;;
10725;SDS011;5414;59.782;16.378;2022-09-24T16:14:45;8.00;;;5.50;;
10725;SDS011;5414;59.782;16.378;2022-09-24T16:17:12;7.60;;;6.53;;
10725;SDS011;5414;59.782;16.378;2022-09-24T16:19:38;7.50;;;6.70;;
10725;SDS011;5414;59.782;16.378;2022-09-24T16:22:04;8.13;;;6.27;;
10725;SDS011;5414;59.782;16.378;2022-09-24T16:24:32;5.10;;;4.60;;
10725;SDS011;5414;59.782;16.378;2022-09-24T16:26:58;5.13;;;4.63;;
10725;SDS011;5414;59.782;16.378;2022-09-24T16:29:25;5.23;;;4.03;;
10725;SDS011;5414;59.782;16.378;2022-09-24T16:31:51;3.77;;;3.43;;
10725;SDS011;5414;59.782;16.378;2022-09-24T16:34:17;3.10;;;2.80;;
10725;SDS011;5414;59.782;16.378;2022-09-24T16:36:43;3.67;;;2.93;;
10725;SDS011;5414;59.782;16.378;2022-09-24T16:39:09;3.13;;;2.93;;
10725;SDS011;5414;59.782;16.378;2022-09-24T16:41:35;4.00;;;3.60;;
10725;SDS011;5414;59.782;16.378;2022-09-24T16:44:02;3.80;;;3.50;;
10725;SDS011;5414;59.782;16.378;2022-09-24T16:46:29;4.43;;;4.00;;
10725;SDS011;5414;59.782;16.378;2022-09-24T16:48:55;4.27;;;3.80;;
10725;SDS011;5414;59.782;16.378;2022-09-24T16:51:21;4.10;;;3.80;;
10725;SDS011;5414;59.782;16.378;2022-09-24T16:53:52;4.90;;;4.50;;
10725;SDS011;5414;59.782;16.378;2022-09-24T16:56:18;5.63;;;4.10;;
10725;SDS011;5414;59.782;16.378;2022-09-24T16:58:44;6.07;;;4.00;;
10725;SDS011;5414;59.782;16.378;2022-09-24T17:01:12;4.10;;;3.80;;
10725;SDS011;5414;59.782;16.378;2022-09-24T17:03:38;4.50;;;4.17;;
10725;SDS011;5414;59.782;16.378;2022-09-24T17:06:04;4.77;;;4.37;;